sensor_id;sensor_type;location;lat;lon;timestamp;P1;durP1;ratioP1;P2;durP2;ratioP2
15194;SDS011;7698;42.478;23.756;2023-04-01T00:00:18;4.93;;;3.67;;
15194;SDS011;7698;42.478;23.756;2023-04-01T00:02:44;5.90;;;4.32;;
15194;SDS011;7698;42.478;23.756;2023-04-01T00:05:13;3.47;;;3.17;;
15194;SDS011;7698;42.478;23.756;2023-04-01T00:07:40;4.90;;;4.07;;
15194;SDS011;7698;42.478;23.756;2023-04-01T00:10:07;3.67;;;2.40;;
15194;SDS011;7698;42.478;23.756;2023-04-01T00:12:35;4.05;;;2.80;;
15194;SDS011;7698;42.478;23.756;2023-04-01T00:15:02;3.00;;;2.75;;
15194;SDS011;7698;42.478;23.756;2023-04-01T00:17:29;2.63;;;2.40;;
15194;SDS011;7698;42.478;23.756;2023-04-01T00:19:56;3.58;;;3.25;;
15194;SDS011;7698;42.478;23.756;2023-04-01T00:22:24;4.50;;;3.75;;
15194;SDS011;7698;42.478;23.756;2023-04-01T00:24:51;6.00;;;3.70;;
15194;SDS011;7698;42.478;23.756;2023-04-01T00:27:17;6.07;;;3.80;;
15194;SDS011;7698;42.478;23.756;2023-04-01T00:29:44;3.97;;;3.40;;
15194;SDS011;7698;42.478;23.756;2023-04-01T00:32:11;7.68;;;4.03;;
15194;SDS011;7698;42.478;23.756;2023-04-01T00:34:38;5.68;;;4.10;;
15194;SDS011;7698;42.478;23.756;2023-04-01T00:37:05;3.50;;;3.20;;
15194;SDS011;7698;42.478;23.756;2023-04-01T00:39:33;5.60;;;4.25;;
15194;SDS011;7698;42.478;23.756;2023-04-01T00:42:00;4.88;;;4.10;;
15194;SDS011;7698;42.478;23.756;2023-04-01T00:44:28;4.35;;;3.70;;
15194;SDS011;7698;42.478;23.756;2023-04-01T00:46:55;3.88;;;3.25;;
15194;SDS011;7698;42.478;23.756;2023-04-01T00:49:22;4.80;;;4.00;;
15194;SDS011;7698;42.478;23.756;2023-04-01T00:51:50;4.40;;;3.53;;
15194;SDS011;7698;42.478;23.756;2023-04-01T00:54:18;4.80;;;3.90;;
15194;SDS011;7698;42.478;23.756;2023-04-01T00:56:48;8.07;;;5.47;;
15194;SDS011;7698;42.478;23.756;2023-04-01T00:59:21;6.45;;;4.65;;
15194;SDS011;7698;42.478;23.756;2023-04-01T01:01:48;8.48;;;5.05;;
15194;SDS011;7698;42.478;23.756;2023-04-01T01:04:20;6.90;;;4.00;;
15194;SDS011;7698;42.478;23.756;2023-04-01T01:06:49;4.40;;;3.55;;
15194;SDS011;7698;42.478;23.756;2023-04-01T01:09:21;5.97;;;4.57;;
15194;SDS011;7698;42.478;23.756;2023-04-01T01:11:54;3.78;;;3.08;;
15194;SDS011;7698;42.478;23.756;2023-04-01T01:14:25;6.75;;;4.47;;
15194;SDS011;7698;42.478;23.756;2023-04-01T01:16:57;5.72;;;4.65;;
15194;SDS011;7698;42.478;23.756;2023-04-01T01:22:19;6.63;;;4.32;;
15194;SDS011;7698;42.478;23.756;2023-04-01T01:25:02;4.25;;;3.80;;
15194;SDS011;7698;42.478;23.756;2023-04-01T01:27:34;6.25;;;4.25;;
15194;SDS011;7698;42.478;23.756;2023-04-01T01:33:06;5.07;;;4.20;;
15194;SDS011;7698;42.478;23.756;2023-04-01T01:35:38;7.68;;;5.47;;
15194;SDS011;7698;42.478;23.756;2023-04-01T01:38:05;5.15;;;4.65;;
15194;SDS011;7698;42.478;23.756;2023-04-01T01:40:33;6.35;;;5.20;;
15194;SDS011;7698;42.478;23.756;2023-04-01T01:43:02;7.55;;;4.80;;
15194;SDS011;7698;42.478;23.756;2023-04-01T01:45:30;4.15;;;3.75;;
15194;SDS011;7698;42.478;23.756;2023-04-01T01:47:58;5.28;;;4.40;;
15194;SDS011;7698;42.478;23.756;2023-04-01T01:50:25;5.40;;;3.08;;
15194;SDS011;7698;42.478;23.756;2023-04-01T01:53:00;4.72;;;3.88;;
15194;SDS011;7698;42.478;23.756;2023-04-01T01:55:28;3.50;;;3.20;;
15194;SDS011;7698;42.478;23.756;2023-04-01T01:57:55;4.82;;;4.30;;
15194;SDS011;7698;42.478;23.756;2023-04-01T02:00:23;5.70;;;4.65;;
15194;SDS011;7698;42.478;23.756;2023-04-01T02:02:50;3.40;;;3.10;;
15194;SDS011;7698;42.478;23.756;2023-04-01T02:05:17;7.20;;;5.30;;
15194;SDS011;7698;42.478;23.756;2023-04-01T02:07:46;5.78;;;5.00;;
15194;SDS011;7698;42.478;23.756;2023-04-01T02:10:16;5.55;;;4.43;;
15194;SDS011;7698;42.478;23.756;2023-04-01T02:12:43;7.38;;;4.60;;
15194;SDS011;7698;42.478;23.756;2023-04-01T02:15:12;4.75;;;3.65;;
15194;SDS011;7698;42.478;23.756;2023-04-01T02:17:42;6.25;;;4.95;;
15194;SDS011;7698;42.478;23.756;2023-04-01T02:20:11;4.30;;;3.63;;
15194;SDS011;7698;42.478;23.756;2023-04-01T02:22:40;4.53;;;3.58;;
15194;SDS011;7698;42.478;23.756;2023-04-01T02:25:09;4.72;;;4.10;;
15194;SDS011;7698;42.478;23.756;2023-04-01T02:27:38;4.93;;;4.18;;
15194;SDS011;7698;42.478;23.756;2023-04-01T02:30:05;5.00;;;3.67;;
15194;SDS011;7698;42.478;23.756;2023-04-01T02:32:32;4.30;;;3.55;;
15194;SDS011;7698;42.478;23.756;2023-04-01T02:35:00;6.63;;;4.60;;
15194;SDS011;7698;42.478;23.756;2023-04-01T02:37:30;6.63;;;5.15;;
15194;SDS011;7698;42.478;23.756;2023-04-01T02:39:58;6.47;;;4.72;;
15194;SDS011;7698;42.478;23.756;2023-04-01T02:42:25;5.47;;;4.90;;
15194;SDS011;7698;42.478;23.756;2023-04-01T02:44:53;5.50;;;4.95;;
15194;SDS011;7698;42.478;23.756;2023-04-01T02:47:20;4.75;;;4.15;;
15194;SDS011;7698;42.478;23.756;2023-04-01T02:49:46;5.13;;;4.35;;
15194;SDS011;7698;42.478;23.756;2023-04-01T02:52:13;4.60;;;4.13;;
15194;SDS011;7698;42.478;23.756;2023-04-01T02:54:39;7.50;;;5.22;;
15194;SDS011;7698;42.478;23.756;2023-04-01T02:57:06;4.40;;;4.00;;
15194;SDS011;7698;42.478;23.756;2023-04-01T02:59:33;5.57;;;4.18;;
15194;SDS011;7698;42.478;23.756;2023-04-01T03:02:01;3.92;;;3.40;;
15194;SDS011;7698;42.478;23.756;2023-04-01T03:04:27;5.25;;;4.47;;
15194;SDS011;7698;42.478;23.756;2023-04-01T03:06:54;4.82;;;4.18;;
15194;SDS011;7698;42.478;23.756;2023-04-01T03:09:20;4.60;;;3.47;;
15194;SDS011;7698;42.478;23.756;2023-04-01T03:11:47;5.35;;;3.92;;
15194;SDS011;7698;42.478;23.756;2023-04-01T03:14:13;5.65;;;3.17;;
15194;SDS011;7698;42.478;23.756;2023-04-01T03:16:40;4.75;;;4.30;;
15194;SDS011;7698;42.478;23.756;2023-04-01T03:19:08;3.47;;;3.15;;
15194;SDS011;7698;42.478;23.756;2023-04-01T03:21:35;4.80;;;4.30;;
15194;SDS011;7698;42.478;23.756;2023-04-01T03:24:01;5.22;;;4.10;;
15194;SDS011;7698;42.478;23.756;2023-04-01T03:26:28;4.88;;;4.40;;
15194;SDS011;7698;42.478;23.756;2023-04-01T03:28:54;4.63;;;4.22;;
15194;SDS011;7698;42.478;23.756;2023-04-01T03:31:21;4.63;;;4.18;;
15194;SDS011;7698;42.478;23.756;2023-04-01T03:33:48;8.80;;;6.63;;
15194;SDS011;7698;42.478;23.756;2023-04-01T03:36:15;6.00;;;5.40;;
15194;SDS011;7698;42.478;23.756;2023-04-01T03:38:42;5.60;;;5.07;;
15194;SDS011;7698;42.478;23.756;2023-04-01T03:41:11;9.23;;;6.32;;
15194;SDS011;7698;42.478;23.756;2023-04-01T03:43:38;7.75;;;6.05;;
15194;SDS011;7698;42.478;23.756;2023-04-01T03:46:04;4.88;;;4.38;;
15194;SDS011;7698;42.478;23.756;2023-04-01T03:48:31;4.93;;;4.38;;
15194;SDS011;7698;42.478;23.756;2023-04-01T03:50:57;8.30;;;5.35;;
15194;SDS011;7698;42.478;23.756;2023-04-01T03:53:25;4.20;;;3.90;;
15194;SDS011;7698;42.478;23.756;2023-04-01T03:55:53;5.68;;;4.13;;
15194;SDS011;7698;42.478;23.756;2023-04-01T03:58:19;5.72;;;4.10;;
15194;SDS011;7698;42.478;23.756;2023-04-01T04:00:46;4.75;;;4.43;;
15194;SDS011;7698;42.478;23.756;2023-04-01T04:03:12;4.90;;;4.32;;
15194;SDS011;7698;42.478;23.756;2023-04-01T04:05:45;4.40;;;4.00;;
15194;SDS011;7698;42.478;23.756;2023-04-01T04:08:12;5.95;;;5.20;;
15194;SDS011;7698;42.478;23.756;2023-04-01T04:10:40;7.15;;;6.05;;
15194;SDS011;7698;42.478;23.756;2023-04-01T04:13:06;7.32;;;6.25;;
15194;SDS011;7698;42.478;23.756;2023-04-01T04:15:33;6.45;;;5.75;;
15194;SDS011;7698;42.478;23.756;2023-04-01T04:17:59;5.30;;;4.60;;
15194;SDS011;7698;42.478;23.756;2023-04-01T04:20:26;5.20;;;4.70;;
15194;SDS011;7698;42.478;23.756;2023-04-01T04:22:52;5.75;;;4.68;;
15194;SDS011;7698;42.478;23.756;2023-04-01T04:25:19;9.40;;;5.68;;
15194;SDS011;7698;42.478;23.756;2023-04-01T04:27:47;6.47;;;5.57;;
15194;SDS011;7698;42.478;23.756;2023-04-01T04:30:14;6.28;;;5.65;;
15194;SDS011;7698;42.478;23.756;2023-04-01T04:32:41;6.28;;;5.70;;
15194;SDS011;7698;42.478;23.756;2023-04-01T04:35:08;4.28;;;3.88;;
15194;SDS011;7698;42.478;23.756;2023-04-01T04:37:34;5.75;;;5.18;;
15194;SDS011;7698;42.478;23.756;2023-04-01T04:40:01;8.30;;;5.30;;
15194;SDS011;7698;42.478;23.756;2023-04-01T04:42:27;6.38;;;4.88;;
15194;SDS011;7698;42.478;23.756;2023-04-01T04:44:55;6.00;;;5.40;;
15194;SDS011;7698;42.478;23.756;2023-04-01T04:47:22;5.22;;;4.82;;
15194;SDS011;7698;42.478;23.756;2023-04-01T04:49:49;6.50;;;5.82;;
15194;SDS011;7698;42.478;23.756;2023-04-01T04:52:15;9.07;;;6.30;;
15194;SDS011;7698;42.478;23.756;2023-04-01T04:54:42;6.80;;;6.10;;
15194;SDS011;7698;42.478;23.756;2023-04-01T04:57:08;6.75;;;5.28;;
15194;SDS011;7698;42.478;23.756;2023-04-01T04:59:35;5.72;;;5.22;;
15194;SDS011;7698;42.478;23.756;2023-04-01T05:02:03;7.70;;;6.88;;
15194;SDS011;7698;42.478;23.756;2023-04-01T05:04:29;7.28;;;6.63;;
15194;SDS011;7698;42.478;23.756;2023-04-01T05:06:56;8.23;;;6.72;;
15194;SDS011;7698;42.478;23.756;2023-04-01T05:09:22;8.13;;;7.32;;
15194;SDS011;7698;42.478;23.756;2023-04-01T05:11:49;6.85;;;6.18;;
15194;SDS011;7698;42.478;23.756;2023-04-01T05:14:15;10.35;;;8.15;;
15194;SDS011;7698;42.478;23.756;2023-04-01T05:16:42;9.05;;;6.78;;
15194;SDS011;7698;42.478;23.756;2023-04-01T05:19:10;9.10;;;7.30;;
15194;SDS011;7698;42.478;23.756;2023-04-01T05:21:36;7.03;;;5.68;;
15194;SDS011;7698;42.478;23.756;2023-04-01T05:24:03;8.07;;;7.28;;
15194;SDS011;7698;42.478;23.756;2023-04-01T05:26:30;8.52;;;7.72;;
15194;SDS011;7698;42.478;23.756;2023-04-01T05:28:57;8.40;;;6.55;;
15194;SDS011;7698;42.478;23.756;2023-04-01T05:31:24;10.43;;;6.40;;
15194;SDS011;7698;42.478;23.756;2023-04-01T05:33:50;7.03;;;5.53;;
15194;SDS011;7698;42.478;23.756;2023-04-01T05:36:20;6.50;;;5.90;;
15194;SDS011;7698;42.478;23.756;2023-04-01T05:38:46;5.75;;;5.20;;
15194;SDS011;7698;42.478;23.756;2023-04-01T05:41:13;6.88;;;4.95;;
15194;SDS011;7698;42.478;23.756;2023-04-01T05:43:40;7.82;;;6.00;;
15194;SDS011;7698;42.478;23.756;2023-04-01T05:46:06;5.97;;;5.38;;
15194;SDS011;7698;42.478;23.756;2023-04-01T05:48:33;15.57;;;10.75;;
15194;SDS011;7698;42.478;23.756;2023-04-01T05:51:00;15.07;;;12.38;;
15194;SDS011;7698;42.478;23.756;2023-04-01T05:53:28;14.57;;;12.18;;
15194;SDS011;7698;42.478;23.756;2023-04-01T05:55:54;17.23;;;13.05;;
15194;SDS011;7698;42.478;23.756;2023-04-01T05:58:21;15.65;;;14.05;;
15194;SDS011;7698;42.478;23.756;2023-04-01T06:00:47;11.20;;;10.05;;
15194;SDS011;7698;42.478;23.756;2023-04-01T06:03:14;12.80;;;9.10;;
15194;SDS011;7698;42.478;23.756;2023-04-01T06:05:41;8.98;;;6.85;;
15194;SDS011;7698;42.478;23.756;2023-04-01T06:08:10;6.97;;;5.78;;
15194;SDS011;7698;42.478;23.756;2023-04-01T06:10:41;5.78;;;5.20;;
15194;SDS011;7698;42.478;23.756;2023-04-01T06:13:11;7.20;;;4.85;;
15194;SDS011;7698;42.478;23.756;2023-04-01T06:15:39;10.63;;;5.63;;
15194;SDS011;7698;42.478;23.756;2023-04-01T06:20:53;7.78;;;4.53;;
15194;SDS011;7698;42.478;23.756;2023-04-01T06:23:33;4.20;;;3.78;;
15194;SDS011;7698;42.478;23.756;2023-04-01T06:26:06;3.95;;;3.17;;
15194;SDS011;7698;42.478;23.756;2023-04-01T06:28:48;4.15;;;3.55;;
15194;SDS011;7698;42.478;23.756;2023-04-01T06:31:25;8.48;;;4.45;;
15194;SDS011;7698;42.478;23.756;2023-04-01T06:33:57;6.63;;;4.40;;
15194;SDS011;7698;42.478;23.756;2023-04-01T06:44:47;4.22;;;3.80;;
15194;SDS011;7698;42.478;23.756;2023-04-01T06:47:22;3.67;;;3.38;;
15194;SDS011;7698;42.478;23.756;2023-04-01T06:49:52;6.95;;;3.60;;
15194;SDS011;7698;42.478;23.756;2023-04-01T06:52:22;5.78;;;4.25;;
15194;SDS011;7698;42.478;23.756;2023-04-01T06:54:53;4.35;;;3.20;;
15194;SDS011;7698;42.478;23.756;2023-04-01T06:57:23;4.70;;;3.97;;
15194;SDS011;7698;42.478;23.756;2023-04-01T06:59:54;5.25;;;3.20;;
15194;SDS011;7698;42.478;23.756;2023-04-01T07:02:24;5.30;;;3.85;;
15194;SDS011;7698;42.478;23.756;2023-04-01T07:04:53;4.50;;;3.50;;
15194;SDS011;7698;42.478;23.756;2023-04-01T07:07:21;4.20;;;3.80;;
15194;SDS011;7698;42.478;23.756;2023-04-01T07:09:50;4.80;;;4.07;;
15194;SDS011;7698;42.478;23.756;2023-04-01T07:12:19;4.28;;;3.67;;
15194;SDS011;7698;42.478;23.756;2023-04-01T07:14:47;4.55;;;3.55;;
15194;SDS011;7698;42.478;23.756;2023-04-01T07:17:17;4.57;;;3.03;;
15194;SDS011;7698;42.478;23.756;2023-04-01T07:19:47;4.68;;;2.35;;
15194;SDS011;7698;42.478;23.756;2023-04-01T07:22:17;2.63;;;2.42;;
15194;SDS011;7698;42.478;23.756;2023-04-01T07:24:46;4.82;;;3.15;;
15194;SDS011;7698;42.478;23.756;2023-04-01T07:27:13;2.80;;;2.40;;
15194;SDS011;7698;42.478;23.756;2023-04-01T07:29:40;3.63;;;3.33;;
15194;SDS011;7698;42.478;23.756;2023-04-01T07:32:14;5.35;;;4.00;;
15194;SDS011;7698;42.478;23.756;2023-04-01T07:34:48;3.17;;;2.90;;
15194;SDS011;7698;42.478;23.756;2023-04-01T07:37:17;3.80;;;3.33;;
15194;SDS011;7698;42.478;23.756;2023-04-01T07:39:49;7.00;;;3.78;;
15194;SDS011;7698;42.478;23.756;2023-04-01T07:42:22;3.75;;;3.30;;
15194;SDS011;7698;42.478;23.756;2023-04-01T07:44:52;3.97;;;3.58;;
15194;SDS011;7698;42.478;23.756;2023-04-01T07:47:24;5.22;;;4.05;;
15194;SDS011;7698;42.478;23.756;2023-04-01T07:49:56;4.45;;;3.70;;
15194;SDS011;7698;42.478;23.756;2023-04-01T07:52:27;4.93;;;4.30;;
15194;SDS011;7698;42.478;23.756;2023-04-01T07:54:57;5.88;;;4.40;;
15194;SDS011;7698;42.478;23.756;2023-04-01T07:57:27;7.82;;;5.13;;
15194;SDS011;7698;42.478;23.756;2023-04-01T07:59:58;6.63;;;4.22;;
15194;SDS011;7698;42.478;23.756;2023-04-01T08:02:29;6.63;;;5.05;;
15194;SDS011;7698;42.478;23.756;2023-04-01T08:05:06;5.97;;;4.15;;
15194;SDS011;7698;42.478;23.756;2023-04-01T08:07:39;3.55;;;3.10;;
15194;SDS011;7698;42.478;23.756;2023-04-01T08:10:10;4.63;;;3.28;;
15194;SDS011;7698;42.478;23.756;2023-04-01T08:12:42;4.05;;;2.83;;
15194;SDS011;7698;42.478;23.756;2023-04-01T08:15:13;3.80;;;2.65;;
15194;SDS011;7698;42.478;23.756;2023-04-01T08:17:47;4.47;;;3.30;;
15194;SDS011;7698;42.478;23.756;2023-04-01T08:20:22;3.53;;;3.13;;
15194;SDS011;7698;42.478;23.756;2023-04-01T08:22:50;6.85;;;3.28;;
15194;SDS011;7698;42.478;23.756;2023-04-01T08:25:17;3.97;;;2.95;;
15194;SDS011;7698;42.478;23.756;2023-04-01T08:27:47;4.15;;;3.13;;
15194;SDS011;7698;42.478;23.756;2023-04-01T08:30:16;3.03;;;2.78;;
15194;SDS011;7698;42.478;23.756;2023-04-01T08:32:44;3.60;;;2.97;;
15194;SDS011;7698;42.478;23.756;2023-04-01T08:35:14;3.70;;;2.92;;
15194;SDS011;7698;42.478;23.756;2023-04-01T08:37:45;3.90;;;3.50;;
15194;SDS011;7698;42.478;23.756;2023-04-01T08:40:28;4.03;;;3.15;;
15194;SDS011;7698;42.478;23.756;2023-04-01T08:43:02;3.95;;;2.80;;
15194;SDS011;7698;42.478;23.756;2023-04-01T08:45:40;3.83;;;3.40;;
15194;SDS011;7698;42.478;23.756;2023-04-01T08:48:23;5.78;;;3.38;;
15194;SDS011;7698;42.478;23.756;2023-04-01T08:51:06;4.90;;;3.13;;
15194;SDS011;7698;42.478;23.756;2023-04-01T08:53:39;4.07;;;3.50;;
15194;SDS011;7698;42.478;23.756;2023-04-01T08:56:12;5.82;;;3.53;;
15194;SDS011;7698;42.478;23.756;2023-04-01T08:58:50;5.85;;;3.83;;
15194;SDS011;7698;42.478;23.756;2023-04-01T09:01:21;4.80;;;3.45;;
15194;SDS011;7698;42.478;23.756;2023-04-01T09:03:56;3.67;;;3.38;;
15194;SDS011;7698;42.478;23.756;2023-04-01T09:06:25;5.22;;;3.65;;
15194;SDS011;7698;42.478;23.756;2023-04-01T09:09:21;4.38;;;3.38;;
15194;SDS011;7698;42.478;23.756;2023-04-01T09:14:36;8.48;;;4.57;;
15194;SDS011;7698;42.478;23.756;2023-04-01T09:19:57;6.30;;;3.83;;
15194;SDS011;7698;42.478;23.756;2023-04-01T09:22:29;5.38;;;3.67;;
15194;SDS011;7698;42.478;23.756;2023-04-01T09:25:08;5.78;;;3.83;;
15194;SDS011;7698;42.478;23.756;2023-04-01T09:27:43;7.07;;;3.67;;
15194;SDS011;7698;42.478;23.756;2023-04-01T09:30:25;4.47;;;3.30;;
15194;SDS011;7698;42.478;23.756;2023-04-01T09:35:48;3.03;;;2.72;;
15194;SDS011;7698;42.478;23.756;2023-04-01T09:38:19;2.55;;;2.33;;
15194;SDS011;7698;42.478;23.756;2023-04-01T09:40:51;4.82;;;3.08;;
15194;SDS011;7698;42.478;23.756;2023-04-01T09:43:25;4.40;;;2.95;;
15194;SDS011;7698;42.478;23.756;2023-04-01T09:45:55;3.05;;;2.80;;
15194;SDS011;7698;42.478;23.756;2023-04-01T09:48:29;4.45;;;3.22;;
15194;SDS011;7698;42.478;23.756;2023-04-01T09:51:01;3.53;;;3.03;;
15194;SDS011;7698;42.478;23.756;2023-04-01T09:53:37;4.47;;;2.92;;
15194;SDS011;7698;42.478;23.756;2023-04-01T09:56:21;3.95;;;2.70;;
15194;SDS011;7698;42.478;23.756;2023-04-01T09:59:08;3.90;;;2.92;;
15194;SDS011;7698;42.478;23.756;2023-04-01T10:01:54;3.50;;;2.60;;
15194;SDS011;7698;42.478;23.756;2023-04-01T10:07:22;4.43;;;2.60;;
15194;SDS011;7698;42.478;23.756;2023-04-01T10:12:46;3.88;;;2.67;;
15194;SDS011;7698;42.478;23.756;2023-04-01T10:15:27;5.15;;;3.20;;
15194;SDS011;7698;42.478;23.756;2023-04-01T10:20:43;3.53;;;2.83;;
15194;SDS011;7698;42.478;23.756;2023-04-01T10:23:17;3.58;;;2.88;;
15194;SDS011;7698;42.478;23.756;2023-04-01T10:28:38;3.30;;;2.67;;
15194;SDS011;7698;42.478;23.756;2023-04-01T10:34:20;3.97;;;2.47;;
15194;SDS011;7698;42.478;23.756;2023-04-01T10:36:54;3.70;;;2.55;;
15194;SDS011;7698;42.478;23.756;2023-04-01T10:39:33;4.03;;;2.30;;
15194;SDS011;7698;42.478;23.756;2023-04-01T10:42:05;3.40;;;2.53;;
15194;SDS011;7698;42.478;23.756;2023-04-01T10:53:01;5.78;;;2.92;;
15194;SDS011;7698;42.478;23.756;2023-04-01T10:55:44;3.70;;;3.03;;
15194;SDS011;7698;42.478;23.756;2023-04-01T11:04:20;3.75;;;2.45;;
15194;SDS011;7698;42.478;23.756;2023-04-01T11:12:39;2.60;;;1.95;;
15194;SDS011;7698;42.478;23.756;2023-04-01T11:15:17;3.45;;;2.15;;
15194;SDS011;7698;42.478;23.756;2023-04-01T11:20:42;2.78;;;2.28;;
15194;SDS011;7698;42.478;23.756;2023-04-01T11:23:14;2.72;;;2.10;;
15194;SDS011;7698;42.478;23.756;2023-04-01T11:25:48;4.70;;;1.95;;
15194;SDS011;7698;42.478;23.756;2023-04-01T11:28:27;3.45;;;2.63;;
15194;SDS011;7698;42.478;23.756;2023-04-01T11:31:04;7.10;;;2.72;;
15194;SDS011;7698;42.478;23.756;2023-04-01T11:33:36;3.13;;;2.65;;
15194;SDS011;7698;42.478;23.756;2023-04-01T11:36:07;3.58;;;2.95;;
15194;SDS011;7698;42.478;23.756;2023-04-01T11:38:45;4.55;;;2.50;;
15194;SDS011;7698;42.478;23.756;2023-04-01T11:41:19;6.03;;;3.70;;
15194;SDS011;7698;42.478;23.756;2023-04-01T11:43:53;2.58;;;2.38;;
15194;SDS011;7698;42.478;23.756;2023-04-01T11:46:25;6.32;;;2.78;;
15194;SDS011;7698;42.478;23.756;2023-04-01T11:48:58;4.25;;;2.70;;
15194;SDS011;7698;42.478;23.756;2023-04-01T11:51:43;2.97;;;2.50;;
15194;SDS011;7698;42.478;23.756;2023-04-01T11:54:17;3.75;;;2.72;;
15194;SDS011;7698;42.478;23.756;2023-04-01T11:56:56;3.78;;;2.42;;
15194;SDS011;7698;42.478;23.756;2023-04-01T11:59:31;4.30;;;3.00;;
15194;SDS011;7698;42.478;23.756;2023-04-01T12:02:06;3.60;;;3.03;;
15194;SDS011;7698;42.478;23.756;2023-04-01T12:04:44;3.03;;;2.72;;
15194;SDS011;7698;42.478;23.756;2023-04-01T12:07:19;3.45;;;2.80;;
15194;SDS011;7698;42.478;23.756;2023-04-01T12:09:49;4.22;;;2.85;;
15194;SDS011;7698;42.478;23.756;2023-04-01T12:12:22;2.53;;;2.33;;
15194;SDS011;7698;42.478;23.756;2023-04-01T12:14:57;3.85;;;2.65;;
15194;SDS011;7698;42.478;23.756;2023-04-01T12:17:28;4.15;;;2.65;;
15194;SDS011;7698;42.478;23.756;2023-04-01T12:19:56;5.93;;;2.83;;
15194;SDS011;7698;42.478;23.756;2023-04-01T12:22:28;4.10;;;2.90;;
15194;SDS011;7698;42.478;23.756;2023-04-01T12:24:59;3.33;;;2.80;;
15194;SDS011;7698;42.478;23.756;2023-04-01T12:27:41;4.07;;;2.22;;
15194;SDS011;7698;42.478;23.756;2023-04-01T12:30:18;5.25;;;2.40;;
15194;SDS011;7698;42.478;23.756;2023-04-01T12:32:50;5.93;;;2.65;;
15194;SDS011;7698;42.478;23.756;2023-04-01T12:35:22;4.88;;;2.17;;
15194;SDS011;7698;42.478;23.756;2023-04-01T12:38:02;2.72;;;1.70;;
15194;SDS011;7698;42.478;23.756;2023-04-01T12:40:37;2.17;;;1.95;;
15194;SDS011;7698;42.478;23.756;2023-04-01T12:43:12;2.97;;;2.08;;
15194;SDS011;7698;42.478;23.756;2023-04-01T12:45:46;3.00;;;2.20;;
15194;SDS011;7698;42.478;23.756;2023-04-01T12:48:31;2.55;;;1.90;;
15194;SDS011;7698;42.478;23.756;2023-04-01T12:53:56;1.85;;;1.70;;
15194;SDS011;7698;42.478;23.756;2023-04-01T12:56:29;1.25;;;1.13;;
15194;SDS011;7698;42.478;23.756;2023-04-01T12:59:07;1.75;;;1.27;;
15194;SDS011;7698;42.478;23.756;2023-04-01T13:01:42;1.83;;;1.52;;
15194;SDS011;7698;42.478;23.756;2023-04-01T13:04:35;1.42;;;1.33;;
15194;SDS011;7698;42.478;23.756;2023-04-01T13:07:08;1.38;;;1.13;;
15194;SDS011;7698;42.478;23.756;2023-04-01T13:09:39;1.70;;;1.50;;
15194;SDS011;7698;42.478;23.756;2023-04-01T13:12:25;2.72;;;1.40;;
15194;SDS011;7698;42.478;23.756;2023-04-01T13:17:45;1.83;;;1.60;;
15194;SDS011;7698;42.478;23.756;2023-04-01T13:20:16;3.63;;;3.33;;
15194;SDS011;7698;42.478;23.756;2023-04-01T13:22:50;5.80;;;4.97;;
15194;SDS011;7698;42.478;23.756;2023-04-01T13:25:20;2.83;;;2.63;;
15194;SDS011;7698;42.478;23.756;2023-04-01T13:27:50;2.40;;;2.13;;
15194;SDS011;7698;42.478;23.756;2023-04-01T13:30:22;5.20;;;4.47;;
15194;SDS011;7698;42.478;23.756;2023-04-01T13:32:55;4.68;;;4.18;;
15194;SDS011;7698;42.478;23.756;2023-04-01T13:35:26;4.00;;;3.65;;
15194;SDS011;7698;42.478;23.756;2023-04-01T13:40:53;2.75;;;2.55;;
15194;SDS011;7698;42.478;23.756;2023-04-01T13:43:23;3.40;;;2.55;;
15194;SDS011;7698;42.478;23.756;2023-04-01T13:46:01;2.63;;;2.17;;
15194;SDS011;7698;42.478;23.756;2023-04-01T13:48:43;2.42;;;2.20;;
15194;SDS011;7698;42.478;23.756;2023-04-01T13:54:08;2.60;;;2.38;;
15194;SDS011;7698;42.478;23.756;2023-04-01T13:56:41;3.35;;;2.00;;
15194;SDS011;7698;42.478;23.756;2023-04-01T13:59:18;3.50;;;2.17;;
15194;SDS011;7698;42.478;23.756;2023-04-01T14:01:53;2.20;;;1.55;;
15194;SDS011;7698;42.478;23.756;2023-04-01T14:04:27;4.30;;;2.20;;
15194;SDS011;7698;42.478;23.756;2023-04-01T14:06:59;3.47;;;1.92;;
15194;SDS011;7698;42.478;23.756;2023-04-01T14:09:33;2.33;;;1.40;;
15194;SDS011;7698;42.478;23.756;2023-04-01T14:12:04;1.70;;;1.50;;
15194;SDS011;7698;42.478;23.756;2023-04-01T14:14:37;1.52;;;1.25;;
15194;SDS011;7698;42.478;23.756;2023-04-01T14:17:09;2.05;;;1.50;;
15194;SDS011;7698;42.478;23.756;2023-04-01T14:19:51;1.70;;;1.60;;
15194;SDS011;7698;42.478;23.756;2023-04-01T14:22:25;2.42;;;2.03;;
15194;SDS011;7698;42.478;23.756;2023-04-01T14:27:48;2.65;;;1.70;;
15194;SDS011;7698;42.478;23.756;2023-04-01T14:30:24;2.15;;;1.30;;
15194;SDS011;7698;42.478;23.756;2023-04-01T14:32:57;2.80;;;1.30;;
15194;SDS011;7698;42.478;23.756;2023-04-01T14:35:33;1.30;;;1.10;;
15194;SDS011;7698;42.478;23.756;2023-04-01T14:38:09;3.42;;;1.23;;
15194;SDS011;7698;42.478;23.756;2023-04-01T14:40:45;2.25;;;1.80;;
15194;SDS011;7698;42.478;23.756;2023-04-01T14:43:41;1.67;;;1.30;;
15194;SDS011;7698;42.478;23.756;2023-04-01T14:46:22;2.35;;;1.45;;
15194;SDS011;7698;42.478;23.756;2023-04-01T14:48:52;1.10;;;1.00;;
15194;SDS011;7698;42.478;23.756;2023-04-01T14:51:28;1.35;;;1.17;;
15194;SDS011;7698;42.478;23.756;2023-04-01T14:53:58;2.72;;;1.40;;
15194;SDS011;7698;42.478;23.756;2023-04-01T14:56:39;1.90;;;1.50;;
15194;SDS011;7698;42.478;23.756;2023-04-01T14:59:09;3.58;;;1.75;;
15194;SDS011;7698;42.478;23.756;2023-04-01T15:01:37;1.20;;;1.10;;
15194;SDS011;7698;42.478;23.756;2023-04-01T15:04:12;1.25;;;1.10;;
15194;SDS011;7698;42.478;23.756;2023-04-01T15:06:47;2.38;;;1.15;;
15194;SDS011;7698;42.478;23.756;2023-04-01T15:09:19;1.80;;;1.33;;
15194;SDS011;7698;42.478;23.756;2023-04-01T15:11:52;3.22;;;1.27;;
15194;SDS011;7698;42.478;23.756;2023-04-01T15:14:29;1.63;;;1.50;;
15194;SDS011;7698;42.478;23.756;2023-04-01T15:17:01;1.70;;;1.20;;
15194;SDS011;7698;42.478;23.756;2023-04-01T15:19:36;4.97;;;4.50;;
15194;SDS011;7698;42.478;23.756;2023-04-01T15:22:12;5.22;;;4.72;;
15194;SDS011;7698;42.478;23.756;2023-04-01T15:24:45;2.47;;;1.52;;
15194;SDS011;7698;42.478;23.756;2023-04-01T15:27:18;1.65;;;1.20;;
15194;SDS011;7698;42.478;23.756;2023-04-01T15:29:56;1.70;;;1.40;;
15194;SDS011;7698;42.478;23.756;2023-04-01T15:32:30;2.95;;;2.58;;
15194;SDS011;7698;42.478;23.756;2023-04-01T15:35:00;1.95;;;1.65;;
15194;SDS011;7698;42.478;23.756;2023-04-01T15:37:33;1.88;;;1.40;;
15194;SDS011;7698;42.478;23.756;2023-04-01T15:40:08;6.25;;;5.70;;
15194;SDS011;7698;42.478;23.756;2023-04-01T15:42:44;3.92;;;3.63;;
15194;SDS011;7698;42.478;23.756;2023-04-01T15:45:17;4.53;;;3.05;;
15194;SDS011;7698;42.478;23.756;2023-04-01T15:47:45;3.60;;;3.25;;
15194;SDS011;7698;42.478;23.756;2023-04-01T15:50:26;1.38;;;1.17;;
15194;SDS011;7698;42.478;23.756;2023-04-01T15:53:00;1.27;;;0.90;;
15194;SDS011;7698;42.478;23.756;2023-04-01T15:55:31;1.05;;;0.85;;
15194;SDS011;7698;42.478;23.756;2023-04-01T15:58:06;1.02;;;0.77;;
15194;SDS011;7698;42.478;23.756;2023-04-01T16:00:45;1.02;;;0.90;;
15194;SDS011;7698;42.478;23.756;2023-04-01T16:03:27;0.80;;;0.80;;
15194;SDS011;7698;42.478;23.756;2023-04-01T16:06:11;2.25;;;1.30;;
15194;SDS011;7698;42.478;23.756;2023-04-01T16:08:49;0.93;;;0.93;;
15194;SDS011;7698;42.478;23.756;2023-04-01T16:11:20;2.22;;;1.40;;
15194;SDS011;7698;42.478;23.756;2023-04-01T16:13:53;1.42;;;1.13;;
15194;SDS011;7698;42.478;23.756;2023-04-01T16:16:24;1.25;;;1.15;;
15194;SDS011;7698;42.478;23.756;2023-04-01T16:21:41;2.17;;;1.85;;
15194;SDS011;7698;42.478;23.756;2023-04-01T16:24:13;3.17;;;1.70;;
15194;SDS011;7698;42.478;23.756;2023-04-01T16:26:44;2.28;;;2.15;;
15194;SDS011;7698;42.478;23.756;2023-04-01T16:29:17;2.58;;;2.00;;
15194;SDS011;7698;42.478;23.756;2023-04-01T16:31:48;2.58;;;2.38;;